sensor_id;sensor_type;location;lat;lon;timestamp;P1;durP1;ratioP1;P2;durP2;ratioP2
25758;SDS011;13604;52.496;13.456;2022-11-25T00:01:36;165.55;;;47.17;;
25758;SDS011;13604;52.496;13.456;2022-11-25T00:04:02;197.73;;;53.17;;
25758;SDS011;13604;52.496;13.456;2022-11-25T00:06:29;164.35;;;47.75;;
25758;SDS011;13604;52.496;13.456;2022-11-25T00:08:57;201.57;;;53.13;;
25758;SDS011;13604;52.496;13.456;2022-11-25T00:11:27;150.15;;;45.55;;
25758;SDS011;13604;52.496;13.456;2022-11-25T00:13:53;137.68;;;43.78;;
25758;SDS011;13604;52.496;13.456;2022-11-25T00:16:20;160.88;;;47.17;;
25758;SDS011;13604;52.496;13.456;2022-11-25T00:18:47;185.68;;;50.25;;
25758;SDS011;13604;52.496;13.456;2022-11-25T00:21:15;199.68;;;51.50;;
25758;SDS011;13604;52.496;13.456;2022-11-25T00:23:41;165.90;;;48.33;;
25758;SDS011;13604;52.496;13.456;2022-11-25T00:26:14;215.60;;;54.47;;
25758;SDS011;13604;52.496;13.456;2022-11-25T00:28:44;189.88;;;53.35;;
25758;SDS011;13604;52.496;13.456;2022-11-25T00:31:11;200.88;;;51.33;;
25758;SDS011;13604;52.496;13.456;2022-11-25T00:33:40;157.13;;;45.15;;
25758;SDS011;13604;52.496;13.456;2022-11-25T00:36:11;175.30;;;47.35;;
25758;SDS011;13604;52.496;13.456;2022-11-25T00:38:39;203.00;;;50.60;;
25758;SDS011;13604;52.496;13.456;2022-11-25T00:41:05;147.95;;;45.30;;
25758;SDS011;13604;52.496;13.456;2022-11-25T00:43:49;141.68;;;36.42;;
25758;SDS011;13604;52.496;13.456;2022-11-25T00:46:32;140.15;;;42.88;;
25758;SDS011;13604;52.496;13.456;2022-11-25T00:48:58;136.40;;;42.10;;
25758;SDS011;13604;52.496;13.456;2022-11-25T00:51:23;186.48;;;48.92;;
25758;SDS011;13604;52.496;13.456;2022-11-25T00:53:48;157.60;;;44.67;;
25758;SDS011;13604;52.496;13.456;2022-11-25T00:56:14;154.90;;;46.17;;
25758;SDS011;13604;52.496;13.456;2022-11-25T00:58:39;147.52;;;44.33;;
25758;SDS011;13604;52.496;13.456;2022-11-25T01:01:05;180.90;;;47.58;;
25758;SDS011;13604;52.496;13.456;2022-11-25T01:03:31;154.65;;;45.00;;
25758;SDS011;13604;52.496;13.456;2022-11-25T01:06:00;168.07;;;47.08;;
25758;SDS011;13604;52.496;13.456;2022-11-25T01:08:27;175.52;;;46.38;;
25758;SDS011;13604;52.496;13.456;2022-11-25T01:11:00;135.30;;;41.33;;
25758;SDS011;13604;52.496;13.456;2022-11-25T01:13:27;136.35;;;42.08;;
25758;SDS011;13604;52.496;13.456;2022-11-25T01:15:53;144.38;;;44.65;;
25758;SDS011;13604;52.496;13.456;2022-11-25T01:18:18;152.07;;;44.35;;
25758;SDS011;13604;52.496;13.456;2022-11-25T01:20:43;174.52;;;46.83;;
25758;SDS011;13604;52.496;13.456;2022-11-25T01:23:09;188.30;;;48.13;;
25758;SDS011;13604;52.496;13.456;2022-11-25T01:25:38;164.88;;;45.05;;
25758;SDS011;13604;52.496;13.456;2022-11-25T01:28:03;178.57;;;48.58;;
25758;SDS011;13604;52.496;13.456;2022-11-25T01:30:29;205.02;;;50.03;;
25758;SDS011;13604;52.496;13.456;2022-11-25T01:32:54;171.02;;;46.85;;
25758;SDS011;13604;52.496;13.456;2022-11-25T01:35:20;144.70;;;42.55;;
25758;SDS011;13604;52.496;13.456;2022-11-25T01:37:45;193.73;;;50.75;;
25758;SDS011;13604;52.496;13.456;2022-11-25T01:40:10;190.77;;;49.47;;
25758;SDS011;13604;52.496;13.456;2022-11-25T01:42:41;155.32;;;44.55;;
25758;SDS011;13604;52.496;13.456;2022-11-25T01:47:48;203.77;;;51.47;;
25758;SDS011;13604;52.496;13.456;2022-11-25T01:50:15;172.38;;;46.72;;
25758;SDS011;13604;52.496;13.456;2022-11-25T01:52:45;171.18;;;45.85;;
25758;SDS011;13604;52.496;13.456;2022-11-25T01:55:15;132.55;;;40.90;;
25758;SDS011;13604;52.496;13.456;2022-11-25T01:57:46;203.32;;;49.88;;
25758;SDS011;13604;52.496;13.456;2022-11-25T02:00:15;178.85;;;46.08;;
25758;SDS011;13604;52.496;13.456;2022-11-25T02:02:41;220.18;;;53.55;;
25758;SDS011;13604;52.496;13.456;2022-11-25T02:05:07;172.90;;;45.65;;
25758;SDS011;13604;52.496;13.456;2022-11-25T02:07:36;192.50;;;48.72;;
25758;SDS011;13604;52.496;13.456;2022-11-25T02:10:05;193.77;;;48.45;;
25758;SDS011;13604;52.496;13.456;2022-11-25T02:12:33;165.18;;;45.30;;
25758;SDS011;13604;52.496;13.456;2022-11-25T02:15:00;158.13;;;46.22;;
25758;SDS011;13604;52.496;13.456;2022-11-25T02:17:26;183.80;;;48.90;;
25758;SDS011;13604;52.496;13.456;2022-11-25T02:20:00;181.73;;;48.05;;
25758;SDS011;13604;52.496;13.456;2022-11-25T02:27:44;176.57;;;47.58;;
25758;SDS011;13604;52.496;13.456;2022-11-25T02:30:12;180.75;;;48.97;;
25758;SDS011;13604;52.496;13.456;2022-11-25T02:32:44;165.48;;;44.67;;
25758;SDS011;13604;52.496;13.456;2022-11-25T02:35:20;175.70;;;47.47;;
25758;SDS011;13604;52.496;13.456;2022-11-25T02:37:49;186.18;;;47.30;;
25758;SDS011;13604;52.496;13.456;2022-11-25T02:40:14;199.88;;;48.78;;
25758;SDS011;13604;52.496;13.456;2022-11-25T02:42:41;158.18;;;44.13;;
25758;SDS011;13604;52.496;13.456;2022-11-25T02:45:08;167.80;;;44.13;;
25758;SDS011;13604;52.496;13.456;2022-11-25T02:47:38;149.13;;;44.65;;
25758;SDS011;13604;52.496;13.456;2022-11-25T02:50:03;183.15;;;48.58;;
25758;SDS011;13604;52.496;13.456;2022-11-25T02:52:29;203.75;;;50.78;;
25758;SDS011;13604;52.496;13.456;2022-11-25T02:54:54;198.20;;;49.83;;
25758;SDS011;13604;52.496;13.456;2022-11-25T02:57:20;213.93;;;50.85;;
25758;SDS011;13604;52.496;13.456;2022-11-25T02:59:45;198.95;;;52.83;;
25758;SDS011;13604;52.496;13.456;2022-11-25T03:02:10;175.90;;;48.03;;
25758;SDS011;13604;52.496;13.456;2022-11-25T03:04:36;170.38;;;44.92;;
25758;SDS011;13604;52.496;13.456;2022-11-25T03:07:01;161.55;;;44.25;;
25758;SDS011;13604;52.496;13.456;2022-11-25T03:09:27;176.30;;;45.53;;
25758;SDS011;13604;52.496;13.456;2022-11-25T03:11:52;165.63;;;44.65;;
25758;SDS011;13604;52.496;13.456;2022-11-25T03:14:36;183.73;;;48.28;;
25758;SDS011;13604;52.496;13.456;2022-11-25T03:17:01;174.57;;;46.38;;
25758;SDS011;13604;52.496;13.456;2022-11-25T03:19:27;154.57;;;44.83;;
25758;SDS011;13604;52.496;13.456;2022-11-25T03:21:52;146.93;;;42.08;;
25758;SDS011;13604;52.496;13.456;2022-11-25T03:24:17;173.52;;;44.95;;
25758;SDS011;13604;52.496;13.456;2022-11-25T03:26:42;197.00;;;50.03;;
25758;SDS011;13604;52.496;13.456;2022-11-25T03:29:08;159.68;;;45.22;;
25758;SDS011;13604;52.496;13.456;2022-11-25T03:31:33;157.63;;;44.33;;
25758;SDS011;13604;52.496;13.456;2022-11-25T03:33:58;163.23;;;46.55;;
25758;SDS011;13604;52.496;13.456;2022-11-25T03:36:24;148.88;;;43.85;;
25758;SDS011;13604;52.496;13.456;2022-11-25T03:38:49;185.60;;;50.15;;
25758;SDS011;13604;52.496;13.456;2022-11-25T03:41:14;205.35;;;50.75;;
25758;SDS011;13604;52.496;13.456;2022-11-25T03:43:40;163.35;;;47.63;;
25758;SDS011;13604;52.496;13.456;2022-11-25T03:46:05;148.23;;;44.72;;
25758;SDS011;13604;52.496;13.456;2022-11-25T03:48:30;178.15;;;48.42;;
25758;SDS011;13604;52.496;13.456;2022-11-25T03:50:55;188.75;;;51.60;;
25758;SDS011;13604;52.496;13.456;2022-11-25T03:53:21;170.40;;;47.60;;
25758;SDS011;13604;52.496;13.456;2022-11-25T03:55:46;192.85;;;51.78;;
25758;SDS011;13604;52.496;13.456;2022-11-25T03:58:12;172.32;;;47.08;;
25758;SDS011;13604;52.496;13.456;2022-11-25T04:00:37;185.85;;;51.17;;
25758;SDS011;13604;52.496;13.456;2022-11-25T04:03:03;186.48;;;51.75;;
25758;SDS011;13604;52.496;13.456;2022-11-25T04:05:28;193.00;;;52.92;;
25758;SDS011;13604;52.496;13.456;2022-11-25T04:07:54;170.93;;;50.38;;
25758;SDS011;13604;52.496;13.456;2022-11-25T04:10:19;197.35;;;53.72;;
25758;SDS011;13604;52.496;13.456;2022-11-25T04:12:44;209.23;;;55.00;;
25758;SDS011;13604;52.496;13.456;2022-11-25T04:15:13;178.73;;;49.42;;
25758;SDS011;13604;52.496;13.456;2022-11-25T04:17:40;198.23;;;52.70;;
25758;SDS011;13604;52.496;13.456;2022-11-25T04:20:06;180.38;;;47.45;;
25758;SDS011;13604;52.496;13.456;2022-11-25T04:22:31;161.88;;;46.17;;
25758;SDS011;13604;52.496;13.456;2022-11-25T04:24:56;199.98;;;51.97;;
25758;SDS011;13604;52.496;13.456;2022-11-25T04:27:22;203.10;;;51.97;;
25758;SDS011;13604;52.496;13.456;2022-11-25T04:29:47;178.10;;;46.33;;
25758;SDS011;13604;52.496;13.456;2022-11-25T04:32:12;165.30;;;45.97;;
25758;SDS011;13604;52.496;13.456;2022-11-25T04:34:38;150.45;;;43.97;;
25758;SDS011;13604;52.496;13.456;2022-11-25T04:37:03;208.38;;;52.30;;
25758;SDS011;13604;52.496;13.456;2022-11-25T04:39:28;174.57;;;49.03;;
25758;SDS011;13604;52.496;13.456;2022-11-25T04:41:54;166.52;;;45.33;;
25758;SDS011;13604;52.496;13.456;2022-11-25T04:44:39;170.77;;;47.60;;
25758;SDS011;13604;52.496;13.456;2022-11-25T04:47:04;163.88;;;46.58;;
25758;SDS011;13604;52.496;13.456;2022-11-25T04:49:29;153.43;;;43.75;;
25758;SDS011;13604;52.496;13.456;2022-11-25T04:51:55;177.43;;;46.28;;
25758;SDS011;13604;52.496;13.456;2022-11-25T04:54:20;184.50;;;49.35;;
25758;SDS011;13604;52.496;13.456;2022-11-25T04:56:45;161.57;;;47.42;;
25758;SDS011;13604;52.496;13.456;2022-11-25T04:59:11;147.18;;;44.75;;
25758;SDS011;13604;52.496;13.456;2022-11-25T05:01:54;119.50;;;32.92;;
25758;SDS011;13604;52.496;13.456;2022-11-25T05:04:20;171.63;;;49.80;;
25758;SDS011;13604;52.496;13.456;2022-11-25T05:06:45;197.52;;;50.63;;
25758;SDS011;13604;52.496;13.456;2022-11-25T05:09:10;206.38;;;50.58;;
25758;SDS011;13604;52.496;13.456;2022-11-25T05:11:36;159.00;;;47.63;;
25758;SDS011;13604;52.496;13.456;2022-11-25T05:14:02;154.00;;;45.55;;
25758;SDS011;13604;52.496;13.456;2022-11-25T05:16:27;180.10;;;50.17;;
25758;SDS011;13604;52.496;13.456;2022-11-25T05:18:54;185.63;;;51.35;;
25758;SDS011;13604;52.496;13.456;2022-11-25T05:21:20;199.32;;;50.03;;
25758;SDS011;13604;52.496;13.456;2022-11-25T05:23:45;172.73;;;47.80;;
25758;SDS011;13604;52.496;13.456;2022-11-25T05:26:10;147.32;;;47.03;;
25758;SDS011;13604;52.496;13.456;2022-11-25T05:28:35;172.43;;;49.38;;
25758;SDS011;13604;52.496;13.456;2022-11-25T05:31:01;175.00;;;47.72;;
25758;SDS011;13604;52.496;13.456;2022-11-25T05:33:26;153.18;;;45.67;;
25758;SDS011;13604;52.496;13.456;2022-11-25T05:35:55;170.18;;;45.40;;
25758;SDS011;13604;52.496;13.456;2022-11-25T05:38:23;151.35;;;46.35;;
25758;SDS011;13604;52.496;13.456;2022-11-25T05:40:48;161.98;;;46.42;;
25758;SDS011;13604;52.496;13.456;2022-11-25T05:43:14;150.20;;;43.05;;
25758;SDS011;13604;52.496;13.456;2022-11-25T05:45:39;146.32;;;43.20;;
25758;SDS011;13604;52.496;13.456;2022-11-25T05:48:05;166.85;;;45.22;;
25758;SDS011;13604;52.496;13.456;2022-11-25T05:50:30;161.60;;;47.60;;
25758;SDS011;13604;52.496;13.456;2022-11-25T05:52:55;169.23;;;48.10;;
25758;SDS011;13604;52.496;13.456;2022-11-25T05:55:21;159.38;;;49.03;;
25758;SDS011;13604;52.496;13.456;2022-11-25T05:57:46;152.30;;;49.22;;
25758;SDS011;13604;52.496;13.456;2022-11-25T06:00:11;145.02;;;44.65;;
25758;SDS011;13604;52.496;13.456;2022-11-25T06:02:37;162.70;;;50.15;;
25758;SDS011;13604;52.496;13.456;2022-11-25T06:05:03;158.82;;;46.38;;
25758;SDS011;13604;52.496;13.456;2022-11-25T06:07:28;175.05;;;47.30;;
25758;SDS011;13604;52.496;13.456;2022-11-25T06:09:53;138.70;;;44.92;;
25758;SDS011;13604;52.496;13.456;2022-11-25T06:12:19;156.43;;;45.17;;
25758;SDS011;13604;52.496;13.456;2022-11-25T06:14:45;129.63;;;41.75;;
25758;SDS011;13604;52.496;13.456;2022-11-25T06:17:11;133.75;;;41.88;;
25758;SDS011;13604;52.496;13.456;2022-11-25T06:19:36;107.30;;;39.25;;
25758;SDS011;13604;52.496;13.456;2022-11-25T06:22:01;139.82;;;43.42;;
25758;SDS011;13604;52.496;13.456;2022-11-25T06:24:27;153.98;;;45.22;;
25758;SDS011;13604;52.496;13.456;2022-11-25T06:26:52;141.13;;;46.13;;
25758;SDS011;13604;52.496;13.456;2022-11-25T06:29:17;200.38;;;49.10;;
25758;SDS011;13604;52.496;13.456;2022-11-25T06:31:42;139.35;;;43.33;;
25758;SDS011;13604;52.496;13.456;2022-11-25T06:34:08;142.90;;;45.35;;
25758;SDS011;13604;52.496;13.456;2022-11-25T06:36:33;160.90;;;46.40;;
25758;SDS011;13604;52.496;13.456;2022-11-25T06:38:58;128.48;;;41.00;;
25758;SDS011;13604;52.496;13.456;2022-11-25T06:41:24;136.07;;;45.38;;
25758;SDS011;13604;52.496;13.456;2022-11-25T06:43:49;190.35;;;49.28;;
25758;SDS011;13604;52.496;13.456;2022-11-25T06:46:15;174.18;;;47.10;;
25758;SDS011;13604;52.496;13.456;2022-11-25T06:48:41;163.20;;;45.08;;
25758;SDS011;13604;52.496;13.456;2022-11-25T06:51:08;139.82;;;44.22;;
25758;SDS011;13604;52.496;13.456;2022-11-25T06:53:35;147.93;;;41.58;;
25758;SDS011;13604;52.496;13.456;2022-11-25T06:56:08;143.90;;;43.25;;
25758;SDS011;13604;52.496;13.456;2022-11-25T06:58:39;141.05;;;42.28;;
25758;SDS011;13604;52.496;13.456;2022-11-25T07:01:18;196.38;;;47.92;;
25758;SDS011;13604;52.496;13.456;2022-11-25T07:03:49;339.75;;;54.05;;
25758;SDS011;13604;52.496;13.456;2022-11-25T07:06:17;269.55;;;52.80;;
25758;SDS011;13604;52.496;13.456;2022-11-25T07:08:43;450.15;;;57.78;;
25758;SDS011;13604;52.496;13.456;2022-11-25T07:11:10;260.40;;;53.72;;
25758;SDS011;13604;52.496;13.456;2022-11-25T07:13:40;195.60;;;48.85;;
25758;SDS011;13604;52.496;13.456;2022-11-25T07:16:05;487.83;;;61.53;;
25758;SDS011;13604;52.496;13.456;2022-11-25T07:18:32;436.77;;;55.85;;
25758;SDS011;13604;52.496;13.456;2022-11-25T07:21:03;484.48;;;55.78;;
25758;SDS011;13604;52.496;13.456;2022-11-25T07:23:35;366.83;;;53.90;;
25758;SDS011;13604;52.496;13.456;2022-11-25T07:26:02;316.92;;;51.15;;
25758;SDS011;13604;52.496;13.456;2022-11-25T07:28:35;401.95;;;55.05;;
25758;SDS011;13604;52.496;13.456;2022-11-25T07:31:34;144.75;;;39.53;;
25758;SDS011;13604;52.496;13.456;2022-11-25T07:34:04;450.13;;;51.90;;
25758;SDS011;13604;52.496;13.456;2022-11-25T07:36:38;238.77;;;42.40;;
25758;SDS011;13604;52.496;13.456;2022-11-25T07:39:05;248.27;;;48.50;;
25758;SDS011;13604;52.496;13.456;2022-11-25T07:41:32;145.60;;;41.50;;
25758;SDS011;13604;52.496;13.456;2022-11-25T07:44:02;230.30;;;44.22;;
25758;SDS011;13604;52.496;13.456;2022-11-25T07:46:30;327.27;;;50.55;;
25758;SDS011;13604;52.496;13.456;2022-11-25T07:48:58;539.70;;;56.80;;
25758;SDS011;13604;52.496;13.456;2022-11-25T07:51:26;378.95;;;48.60;;
25758;SDS011;13604;52.496;13.456;2022-11-25T07:53:55;358.17;;;49.13;;
25758;SDS011;13604;52.496;13.456;2022-11-25T07:56:21;177.85;;;41.38;;
25758;SDS011;13604;52.496;13.456;2022-11-25T07:58:46;268.67;;;46.95;;
25758;SDS011;13604;52.496;13.456;2022-11-25T08:01:13;114.82;;;37.83;;
25758;SDS011;13604;52.496;13.456;2022-11-25T08:03:39;490.08;;;52.85;;
25758;SDS011;13604;52.496;13.456;2022-11-25T08:06:07;158.57;;;42.00;;
25758;SDS011;13604;52.496;13.456;2022-11-25T08:08:35;428.52;;;53.50;;
25758;SDS011;13604;52.496;13.456;2022-11-25T08:11:09;155.63;;;39.53;;
25758;SDS011;13604;52.496;13.456;2022-11-25T08:13:36;147.20;;;40.08;;
25758;SDS011;13604;52.496;13.456;2022-11-25T08:16:02;263.48;;;44.30;;
25758;SDS011;13604;52.496;13.456;2022-11-25T08:18:28;111.50;;;36.35;;
25758;SDS011;13604;52.496;13.456;2022-11-25T08:21:00;237.18;;;46.65;;
25758;SDS011;13604;52.496;13.456;2022-11-25T08:23:28;138.68;;;41.58;;
25758;SDS011;13604;52.496;13.456;2022-11-25T08:25:53;220.52;;;40.85;;
25758;SDS011;13604;52.496;13.456;2022-11-25T08:28:18;123.28;;;38.95;;
25758;SDS011;13604;52.496;13.456;2022-11-25T08:30:44;123.85;;;38.03;;
25758;SDS011;13604;52.496;13.456;2022-11-25T08:33:09;100.68;;;37.67;;
25758;SDS011;13604;52.496;13.456;2022-11-25T08:35:34;143.18;;;39.72;;
25758;SDS011;13604;52.496;13.456;2022-11-25T08:38:02;201.18;;;41.35;;
25758;SDS011;13604;52.496;13.456;2022-11-25T08:40:32;120.20;;;39.00;;
25758;SDS011;13604;52.496;13.456;2022-11-25T08:42:58;213.55;;;40.95;;
25758;SDS011;13604;52.496;13.456;2022-11-25T08:45:24;108.18;;;35.20;;
25758;SDS011;13604;52.496;13.456;2022-11-25T08:47:49;107.40;;;36.60;;
25758;SDS011;13604;52.496;13.456;2022-11-25T08:50:14;121.10;;;36.72;;
25758;SDS011;13604;52.496;13.456;2022-11-25T08:52:40;83.43;;;34.85;;
25758;SDS011;13604;52.496;13.456;2022-11-25T08:55:06;243.52;;;39.25;;
25758;SDS011;13604;52.496;13.456;2022-11-25T08:57:32;163.77;;;35.97;;
25758;SDS011;13604;52.496;13.456;2022-11-25T08:59:58;77.22;;;30.20;;
25758;SDS011;13604;52.496;13.456;2022-11-25T09:02:23;154.32;;;33.70;;
25758;SDS011;13604;52.496;13.456;2022-11-25T09:04:49;135.82;;;31.45;;
25758;SDS011;13604;52.496;13.456;2022-11-25T09:07:14;111.00;;;31.02;;
25758;SDS011;13604;52.496;13.456;2022-11-25T09:09:39;174.38;;;34.08;;
25758;SDS011;13604;52.496;13.456;2022-11-25T09:12:05;201.15;;;34.53;;
25758;SDS011;13604;52.496;13.456;2022-11-25T09:14:30;207.63;;;35.83;;
25758;SDS011;13604;52.496;13.456;2022-11-25T09:16:55;191.32;;;34.33;;
25758;SDS011;13604;52.496;13.456;2022-11-25T09:19:21;153.57;;;32.60;;
25758;SDS011;13604;52.496;13.456;2022-11-25T09:21:46;93.55;;;30.23;;
25758;SDS011;13604;52.496;13.456;2022-11-25T09:24:12;107.03;;;30.63;;
25758;SDS011;13604;52.496;13.456;2022-11-25T09:26:37;181.60;;;33.47;;
25758;SDS011;13604;52.496;13.456;2022-11-25T09:29:05;125.70;;;31.95;;
25758;SDS011;13604;52.496;13.456;2022-11-25T09:31:30;110.18;;;32.15;;
25758;SDS011;13604;52.496;13.456;2022-11-25T09:33:56;63.38;;;28.10;;
25758;SDS011;13604;52.496;13.456;2022-11-25T09:36:21;116.50;;;31.02;;
25758;SDS011;13604;52.496;13.456;2022-11-25T09:38:48;83.00;;;27.73;;
25758;SDS011;13604;52.496;13.456;2022-11-25T09:41:17;54.10;;;26.65;;
25758;SDS011;13604;52.496;13.456;2022-11-25T09:44:33;71.10;;;25.83;;
25758;SDS011;13604;52.496;13.456;2022-11-25T09:47:31;56.30;;;25.70;;
25758;SDS011;13604;52.496;13.456;2022-11-25T09:50:07;74.43;;;28.63;;
25758;SDS011;13604;52.496;13.456;2022-11-25T09:56:05;67.97;;;27.00;;
25758;SDS011;13604;52.496;13.456;2022-11-25T09:58:39;119.55;;;31.02;;
25758;SDS011;13604;52.496;13.456;2022-11-25T10:01:13;92.78;;;31.60;;
25758;SDS011;13604;52.496;13.456;2022-11-25T10:03:42;97.88;;;30.02;;
25758;SDS011;13604;52.496;13.456;2022-11-25T10:06:21;75.63;;;29.83;;
25758;SDS011;13604;52.496;13.456;2022-11-25T10:08:54;92.70;;;31.23;;
25758;SDS011;13604;52.496;13.456;2022-11-25T10:11:25;62.67;;;29.25;;
25758;SDS011;13604;52.496;13.456;2022-11-25T10:14:01;95.05;;;29.38;;
25758;SDS011;13604;52.496;13.456;2022-11-25T10:16:39;79.25;;;29.88;;
25758;SDS011;13604;52.496;13.456;2022-11-25T10:22:01;65.90;;;28.90;;
25758;SDS011;13604;52.496;13.456;2022-11-25T10:24:40;52.47;;;26.63;;
25758;SDS011;13604;52.496;13.456;2022-11-25T10:27:06;72.05;;;29.77;;
25758;SDS011;13604;52.496;13.456;2022-11-25T10:29:39;62.38;;;28.67;;
25758;SDS011;13604;52.496;13.456;2022-11-25T10:32:15;60.08;;;29.75;;
25758;SDS011;13604;52.496;13.456;2022-11-25T10:34:47;69.40;;;28.23;;
25758;SDS011;13604;52.496;13.456;2022-11-25T10:37:29;58.08;;;27.25;;
25758;SDS011;13604;52.496;13.456;2022-11-25T10:40:00;60.33;;;28.10;;
25758;SDS011;13604;52.496;13.456;2022-11-25T10:42:26;62.75;;;27.42;;
25758;SDS011;13604;52.496;13.456;2022-11-25T10:44:52;60.65;;;27.23;;
25758;SDS011;13604;52.496;13.456;2022-11-25T10:53:16;51.95;;;25.90;;
25758;SDS011;13604;52.496;13.456;2022-11-25T10:56:00;57.47;;;26.98;;
25758;SDS011;13604;52.496;13.456;2022-11-25T10:58:37;58.63;;;26.65;;
25758;SDS011;13604;52.496;13.456;2022-11-25T11:03:38;64.25;;;29.33;;
25758;SDS011;13604;52.496;13.456;2022-11-25T11:06:04;59.40;;;28.98;;
25758;SDS011;13604;52.496;13.456;2022-11-25T11:08:37;55.08;;;27.67;;
25758;SDS011;13604;52.496;13.456;2022-11-25T11:11:22;61.17;;;28.05;;
25758;SDS011;13604;52.496;13.456;2022-11-25T11:13:48;62.35;;;29.52;;
25758;SDS011;13604;52.496;13.456;2022-11-25T11:16:25;68.20;;;30.60;;
25758;SDS011;13604;52.496;13.456;2022-11-25T11:18:53;75.45;;;32.80;;
25758;SDS011;13604;52.496;13.456;2022-11-25T11:21:21;75.30;;;32.38;;
25758;SDS011;13604;52.496;13.456;2022-11-25T11:23:50;66.35;;;31.92;;
25758;SDS011;13604;52.496;13.456;2022-11-25T11:26:24;65.97;;;30.67;;
25758;SDS011;13604;52.496;13.456;2022-11-25T11:29:02;57.20;;;28.58;;
25758;SDS011;13604;52.496;13.456;2022-11-25T11:31:42;52.08;;;27.00;;
25758;SDS011;13604;52.496;13.456;2022-11-25T11:34:21;51.88;;;26.60;;
25758;SDS011;13604;52.496;13.456;2022-11-25T11:40:21;51.78;;;27.45;;
25758;SDS011;13604;52.496;13.456;2022-11-25T11:47:58;45.42;;;26.15;;
25758;SDS011;13604;52.496;13.456;2022-11-25T11:50:38;49.53;;;27.55;;
25758;SDS011;13604;52.496;13.456;2022-11-25T11:56:01;52.97;;;26.27;;
25758;SDS011;13604;52.496;13.456;2022-11-25T12:01:26;55.17;;;26.92;;
25758;SDS011;13604;52.496;13.456;2022-11-25T12:04:14;56.80;;;27.05;;
25758;SDS011;13604;52.496;13.456;2022-11-25T12:06:57;53.17;;;27.70;;
25758;SDS011;13604;52.496;13.456;2022-11-25T12:09:27;48.38;;;24.70;;
25758;SDS011;13604;52.496;13.456;2022-11-25T12:11:57;49.72;;;25.33;;
25758;SDS011;13604;52.496;13.456;2022-11-25T12:14:34;50.42;;;26.15;;
25758;SDS011;13604;52.496;13.456;2022-11-25T12:17:09;56.65;;;28.67;;
25758;SDS011;13604;52.496;13.456;2022-11-25T12:22:41;64.35;;;30.15;;
25758;SDS011;13604;52.496;13.456;2022-11-25T12:25:24;63.72;;;30.00;;
25758;SDS011;13604;52.496;13.456;2022-11-25T12:27:58;64.85;;;30.60;;
25758;SDS011;13604;52.496;13.456;2022-11-25T12:30:32;61.72;;;30.25;;
25758;SDS011;13604;52.496;13.456;2022-11-25T12:33:21;67.43;;;30.70;;
25758;SDS011;13604;52.496;13.456;2022-11-25T12:36:03;56.45;;;28.80;;
25758;SDS011;13604;52.496;13.456;2022-11-25T12:46:45;51.75;;;27.15;;
25758;SDS011;13604;52.496;13.456;2022-11-25T12:49:14;69.63;;;27.83;;
25758;SDS011;13604;52.496;13.456;2022-11-25T12:54:36;58.33;;;27.58;;
25758;SDS011;13604;52.496;13.456;2022-11-25T13:02:57;70.55;;;28.60;;
25758;SDS011;13604;52.496;13.456;2022-11-25T13:16:53;77.47;;;28.85;;
25758;SDS011;13604;52.496;13.456;2022-11-25T13:19:21;89.72;;;29.98;;
25758;SDS011;13604;52.496;13.456;2022-11-25T13:24:44;62.83;;;27.45;;
25758;SDS011;13604;52.496;13.456;2022-11-25T13:29:58;75.93;;;29.00;;
25758;SDS011;13604;52.496;13.456;2022-11-25T13:32:26;69.90;;;27.88;;
25758;SDS011;13604;52.496;13.456;2022-11-25T13:37:54;74.35;;;28.02;;
25758;SDS011;13604;52.496;13.456;2022-11-25T13:40:29;88.10;;;28.20;;
25758;SDS011;13604;52.496;13.456;2022-11-25T13:42:59;69.88;;;28.23;;
25758;SDS011;13604;52.496;13.456;2022-11-25T13:45:26;64.18;;;25.60;;
25758;SDS011;13604;52.496;13.456;2022-11-25T13:47:54;73.32;;;29.00;;
25758;SDS011;13604;52.496;13.456;2022-11-25T13:50:28;87.03;;;29.42;;
25758;SDS011;13604;52.496;13.456;2022-11-25T13:53:01;100.95;;;29.90;;
25758;SDS011;13604;52.496;13.456;2022-11-25T13:55:31;81.90;;;27.70;;
25758;SDS011;13604;52.496;13.456;2022-11-25T13:58:41;80.53;;;28.70;;
25758;SDS011;13604;52.496;13.456;2022-11-25T14:00:59;74.03;;;27.30;;
25758;SDS011;13604;52.496;13.456;2022-11-25T14:05:58;111.10;;;33.30;;
25758;SDS011;13604;52.496;13.456;2022-11-25T14:08:41;111.88;;;31.98;;
25758;SDS011;13604;52.496;13.456;2022-11-25T14:14:23;86.78;;;31.10;;
25758;SDS011;13604;52.496;13.456;2022-11-25T14:17:24;81.78;;;30.17;;
25758;SDS011;13604;52.496;13.456;2022-11-25T14:25:53;80.97;;;30.55;;
25758;SDS011;13604;52.496;13.456;2022-11-25T14:28:23;67.25;;;29.05;;
25758;SDS011;13604;52.496;13.456;2022-11-25T14:30:56;73.82;;;30.17;;
25758;SDS011;13604;52.496;13.456;2022-11-25T14:33:30;77.95;;;30.08;;
25758;SDS011;13604;52.496;13.456;2022-11-25T14:36:00;72.38;;;29.20;;
25758;SDS011;13604;52.496;13.456;2022-11-25T14:41:23;128.50;;;35.47;;
25758;SDS011;13604;52.496;13.456;2022-11-25T14:43:59;85.38;;;29.38;;
25758;SDS011;13604;52.496;13.456;2022-11-25T14:46:29;75.85;;;30.52;;
25758;SDS011;13604;52.496;13.456;2022-11-25T14:48:56;76.72;;;30.45;;
25758;SDS011;13604;52.496;13.456;2022-11-25T14:51:27;66.05;;;29.08;;
25758;SDS011;13604;52.496;13.456;2022-11-25T14:53:58;71.82;;;28.88;;
25758;SDS011;13604;52.496;13.456;2022-11-25T14:56:28;64.35;;;28.90;;
25758;SDS011;13604;52.496;13.456;2022-11-25T14:58:54;60.00;;;27.38;;
25758;SDS011;13604;52.496;13.456;2022-11-25T15:01:25;110.47;;;31.67;;
25758;SDS011;13604;52.496;13.456;2022-11-25T15:04:00;68.68;;;28.08;;
25758;SDS011;13604;52.496;13.456;2022-11-25T15:06:38;60.47;;;27.88;;
25758;SDS011;13604;52.496;13.456;2022-11-25T15:09:20;82.65;;;30.15;;
25758;SDS011;13604;52.496;13.456;2022-11-25T15:11:46;120.25;;;33.67;;
25758;SDS011;13604;52.496;13.456;2022-11-25T15:14:17;146.20;;;36.88;;
25758;SDS011;13604;52.496;13.456;2022-11-25T15:16:49;135.10;;;35.92;;
25758;SDS011;13604;52.496;13.456;2022-11-25T15:19:16;113.97;;;33.92;;
25758;SDS011;13604;52.496;13.456;2022-11-25T15:21:44;102.80;;;33.65;;
25758;SDS011;13604;52.496;13.456;2022-11-25T15:24:23;93.05;;;32.15;;
25758;SDS011;13604;52.496;13.456;2022-11-25T15:27:09;113.25;;;37.03;;
25758;SDS011;13604;52.496;13.456;2022-11-25T15:29:39;95.38;;;34.30;;
25758;SDS011;13604;52.496;13.456;2022-11-25T15:32:07;108.35;;;35.83;;
25758;SDS011;13604;52.496;13.456;2022-11-25T15:34:38;88.70;;;31.90;;
25758;SDS011;13604;52.496;13.456;2022-11-25T15:37:04;85.32;;;32.58;;
25758;SDS011;13604;52.496;13.456;2022-11-25T15:39:30;98.75;;;33.33;;
25758;SDS011;13604;52.496;13.456;2022-11-25T15:42:03;81.65;;;33.40;;
25758;SDS011;13604;52.496;13.456;2022-11-25T15:44:32;112.05;;;36.13;;